Time;durP1;ratioP1;P1;durP2;ratioP2;P2;SDS_P1;SDS_P2;PMS_P1;PMS_P2;Temp;Humidity;BMP_temperature;BMP_pressure;BME280_temperature;BME280_humidity;BME280_pressure;Samples;Min_cycle;Max_cycle;Signal;HPM_P1;HPM_P2
2021/09/29 00:00:04;;;;;;;9.30;6.87;;;13.20;99.90;;;;;;5026193;28;20404;-60
2021/09/29 00:02:29;;;;;;;9.37;6.20;;;13.10;99.90;;;;;;5026997;28;21170;-59
2021/09/29 00:04:55;;;;;;;8.60;6.67;;;13.10;99.90;;;;;;4994366;28;20450;-59
2021/09/29 00:07:21;;;;;;;12.50;6.80;;;13.10;99.90;;;;;;5006127;28;20676;-60
2021/09/29 00:09:46;;;;;;;11.00;6.20;;;13.10;99.90;;;;;;5006730;28;20176;-60
2021/09/29 00:12:12;;;;;;;17.20;7.23;;;13.20;99.90;;;;;;5011060;28;20199;-59
2021/09/29 00:14:38;;;;;;;12.20;6.77;;;13.20;99.90;;;;;;5027257;28;20718;-60
2021/09/29 00:17:03;;;;;;;9.40;6.40;;;13.20;99.90;;;;;;5027113;28;20179;-60
2021/09/29 00:19:29;;;;;;;12.13;6.47;;;13.20;99.90;;;;;;5025014;28;20262;-59
2021/09/29 00:21:54;;;;;;;8.10;6.30;;;13.20;99.90;;;;;;5025403;28;20335;-59
2021/09/29 00:24:20;;;;;;;11.20;6.10;;;13.20;99.90;;;;;;5024575;28;20204;-60
2021/09/29 00:26:48;;;;;;;14.43;5.77;;;13.20;99.90;;;;;;5020930;28;20211;-60
2021/09/29 00:29:13;;;;;;;16.73;6.87;;;13.20;99.90;;;;;;5023441;28;20176;-60
2021/09/29 00:31:40;;;;;;;11.43;5.90;;;13.20;99.90;;;;;;5022070;28;20500;-60
2021/09/29 00:34:12;;;;;;;8.80;5.90;;;13.20;99.90;;;;;;5008438;28;20176;-61
2021/09/29 00:36:43;;;;;;;7.90;6.00;;;13.20;99.90;;;;;;5022037;28;20520;-60
2021/09/29 00:39:11;;;;;;;7.23;5.60;;;13.20;99.90;;;;;;5017183;28;20435;-60
2021/09/29 00:41:37;;;;;;;8.90;6.07;;;13.10;99.90;;;;;;5024293;28;20822;-59
2021/09/29 00:44:03;;;;;;;7.50;6.10;;;13.10;99.90;;;;;;5027905;28;20441;-60
2021/09/29 00:46:29;;;;;;;7.70;5.50;;;13.10;99.90;;;;;;5028832;28;20249;-59
2021/09/29 00:48:55;;;;;;;8.10;5.30;;;13.10;99.90;;;;;;5026781;28;20812;-59
2021/09/29 00:51:21;;;;;;;5.20;4.70;;;13.00;99.90;;;;;;5004560;28;20255;-59
2021/09/29 00:53:49;;;;;;;10.17;5.53;;;13.00;99.90;;;;;;5027389;28;20242;-59
2021/09/29 00:56:15;;;;;;;7.10;5.07;;;13.00;99.90;;;;;;5010916;28;20194;-59
2021/09/29 00:58:41;;;;;;;10.23;4.90;;;13.00;99.90;;;;;;5024080;28;20560;-59
2021/09/29 01:01:06;;;;;;;13.73;4.70;;;12.90;99.90;;;;;;5026247;28;21262;-60
2021/09/29 01:03:32;;;;;;;8.00;5.10;;;12.90;99.90;;;;;;5015983;28;20203;-59
2021/09/29 01:06:05;;;;;;;7.07;5.50;;;12.90;99.90;;;;;;5028048;28;20586;-59
2021/09/29 01:08:39;;;;;;;6.33;5.20;;;12.90;99.90;;;;;;5024753;28;20437;-59
2021/09/29 01:11:35;;;;;;;8.27;5.13;;;12.90;99.90;;;;;;5026539;28;20425;-60
2021/09/29 01:14:27;;;;;;;11.43;5.50;;;12.90;99.90;;;;;;5023508;28;20430;-60
2021/09/29 01:16:57;;;;;;;8.83;5.40;;;12.90;99.90;;;;;;5027256;28;20454;-60
2021/09/29 01:19:23;;;;;;;5.77;4.77;;;12.80;99.90;;;;;;5024094;28;20939;-60
2021/09/29 01:21:57;;;;;;;10.23;5.90;;;12.80;99.90;;;;;;5028163;28;20426;-59
2021/09/29 01:24:36;;;;;;;10.00;5.53;;;12.80;99.90;;;;;;5025217;28;20176;-60
2021/09/29 01:27:03;;;;;;;10.30;5.10;;;12.80;99.90;;;;;;5021541;28;20457;-60
2021/09/29 01:29:29;;;;;;;7.43;5.97;;;12.70;99.90;;;;;;5026571;28;20517;-60
2021/09/29 01:31:55;;;;;;;9.13;6.60;;;12.70;99.90;;;;;;5023018;28;20549;-59
2021/09/29 01:34:21;;;;;;;8.43;6.20;;;12.70;99.90;;;;;;5019598;28;20435;-60
2021/09/29 01:36:47;;;;;;;9.13;6.60;;;12.70;99.90;;;;;;5026104;28;20437;-60
2021/09/29 01:39:16;;;;;;;11.73;7.17;;;12.60;99.90;;;;;;5024325;28;20719;-60
2021/09/29 01:41:42;;;;;;;11.00;7.20;;;12.60;99.90;;;;;;5024462;28;20182;-60
2021/09/29 01:44:08;;;;;;;13.13;6.80;;;12.60;99.90;;;;;;5019887;28;20435;-60
2021/09/29 01:46:33;;;;;;;14.50;7.33;;;12.60;99.90;;;;;;5013761;28;20200;-60
2021/09/29 01:49:12;;;;;;;12.27;7.37;;;12.60;99.90;;;;;;5008659;28;20465;-60
2021/09/29 01:51:41;;;;;;;12.57;6.87;;;12.60;99.90;;;;;;5023732;28;20187;-60
2021/09/29 01:54:07;;;;;;;9.70;6.50;;;12.50;99.90;;;;;;5010425;28;20437;-60
2021/09/29 01:56:34;;;;;;;10.43;6.63;;;12.50;99.90;;;;;;5028195;28;20426;-60
2021/09/29 01:59:03;;;;;;;8.80;7.20;;;12.50;99.90;;;;;;5022658;28;20473;-59
2021/09/29 02:01:29;;;;;;;9.83;6.97;;;12.40;99.90;;;;;;5018569;28;21121;-60
2021/09/29 02:03:55;;;;;;;10.73;6.90;;;12.40;99.90;;;;;;5025502;28;20462;-60
2021/09/29 02:06:20;;;;;;;13.70;7.00;;;12.30;99.90;;;;;;5021822;28;20974;-59
2021/09/29 02:08:46;;;;;;;10.27;7.20;;;12.30;99.90;;;;;;5019872;28;20625;-60
2021/09/29 02:11:12;;;;;;;15.50;6.77;;;12.20;99.90;;;;;;5024459;28;20704;-59
2021/09/29 02:13:37;;;;;;;7.73;5.90;;;12.20;99.90;;;;;;5025406;28;20684;-59
2021/09/29 02:16:03;;;;;;;13.13;6.70;;;12.10;99.90;;;;;;5023742;28;20199;-59
2021/09/29 02:18:29;;;;;;;9.20;6.40;;;12.10;99.90;;;;;;5021047;28;20437;-60
2021/09/29 02:20:54;;;;;;;10.30;6.93;;;12.10;99.90;;;;;;5017526;28;20470;-59
2021/09/29 02:23:21;;;;;;;9.67;6.20;;;12.10;99.90;;;;;;5023739;28;20287;-59
2021/09/29 02:25:47;;;;;;;9.13;6.30;;;12.10;99.90;;;;;;5026879;28;20184;-59
2021/09/29 02:28:12;;;;;;;10.87;6.27;;;12.00;99.90;;;;;;5027773;28;20561;-60
2021/09/29 02:30:38;;;;;;;9.80;6.73;;;12.10;99.90;;;;;;5024241;28;20778;-59
2021/09/29 02:33:04;;;;;;;15.97;7.77;;;12.00;99.90;;;;;;5026086;28;20279;-60
2021/09/29 02:35:30;;;;;;;12.87;7.17;;;12.00;99.90;;;;;;5020346;28;20203;-59
2021/09/29 02:37:55;;;;;;;7.93;6.17;;;12.00;99.90;;;;;;5024920;28;20191;-60
2021/09/29 02:40:22;;;;;;;10.10;6.63;;;12.00;99.90;;;;;;5029745;28;20186;-59
2021/09/29 02:42:49;;;;;;;8.43;6.77;;;11.90;99.90;;;;;;5028417;28;20794;-60
2021/09/29 02:45:15;;;;;;;10.53;5.80;;;11.90;99.90;;;;;;5012642;28;20512;-59
2021/09/29 02:47:41;;;;;;;8.70;6.63;;;11.90;99.90;;;;;;5027495;28;20466;-59
2021/09/29 02:50:06;;;;;;;7.37;6.53;;;11.90;99.90;;;;;;5024484;28;20183;-59
2021/09/29 02:52:32;;;;;;;10.67;6.40;;;11.80;99.90;;;;;;5027446;28;20215;-60
2021/09/29 02:54:58;;;;;;;10.00;8.07;;;11.80;99.90;;;;;;5020412;28;20196;-59
2021/09/29 02:57:23;;;;;;;9.77;6.93;;;11.80;99.90;;;;;;5029684;28;20343;-60
2021/09/29 02:59:49;;;;;;;10.37;7.03;;;11.80;99.90;;;;;;5027871;28;20183;-59
2021/09/29 03:02:15;;;;;;;9.07;6.93;;;11.70;99.90;;;;;;5015960;28;20208;-60
2021/09/29 03:04:40;;;;;;;10.67;7.30;;;11.70;99.90;;;;;;5027235;28;20187;-59
2021/09/29 03:07:06;;;;;;;10.70;7.07;;;11.70;99.90;;;;;;5025400;28;20235;-59
2021/09/29 03:09:32;;;;;;;10.70;7.30;;;11.70;99.90;;;;;;5029864;28;20183;-59
2021/09/29 03:11:58;;;;;;;12.80;7.40;;;11.70;99.90;;;;;;5025566;28;20216;-59
2021/09/29 03:14:24;;;;;;;9.50;7.40;;;11.80;99.90;;;;;;5021961;28;20482;-59
2021/09/29 03:16:49;;;;;;;9.53;7.17;;;11.80;99.90;;;;;;5024507;28;20666;-59
2021/09/29 03:19:15;;;;;;;12.23;7.30;;;11.80;99.90;;;;;;5013681;28;20552;-59
2021/09/29 03:21:43;;;;;;;14.47;8.33;;;11.80;99.90;;;;;;5025049;28;20204;-59
2021/09/29 03:24:09;;;;;;;12.30;8.50;;;11.80;99.90;;;;;;5030754;28;20225;-60
2021/09/29 03:26:34;;;;;;;14.83;9.57;;;11.80;99.90;;;;;;5029293;28;21037;-59
2021/09/29 03:29:02;;;;;;;10.90;8.20;;;11.80;99.90;;;;;;5027782;28;20180;-59
2021/09/29 03:31:28;;;;;;;10.20;7.57;;;11.70;99.90;;;;;;5026101;28;20176;-60
2021/09/29 03:33:54;;;;;;;13.37;8.27;;;11.70;99.90;;;;;;5020357;28;20457;-59
2021/09/29 03:36:23;;;;;;;8.37;6.63;;;11.70;99.90;;;;;;5033119;28;20179;-58
2021/09/29 03:38:48;;;;;;;7.97;6.00;;;11.60;99.90;;;;;;5027651;28;20439;-59
2021/09/29 03:41:14;;;;;;;8.33;6.07;;;11.60;99.90;;;;;;5028833;28;20500;-60
2021/09/29 03:43:39;;;;;;;5.97;5.00;;;11.60;99.90;;;;;;5027724;28;20199;-59
2021/09/29 03:46:05;;;;;;;7.50;4.60;;;11.60;99.90;;;;;;5025754;28;20179;-59
2021/09/29 03:48:31;;;;;;;9.20;6.30;;;11.60;99.90;;;;;;5022020;28;20870;-60
2021/09/29 03:50:56;;;;;;;10.93;5.93;;;11.60;99.90;;;;;;5028233;28;20176;-60
2021/09/29 03:53:22;;;;;;;9.63;4.47;;;11.60;99.90;;;;;;5026150;28;20608;-58
2021/09/29 03:55:48;;;;;;;7.80;4.93;;;11.70;99.90;;;;;;5017441;28;22941;-55
2021/09/29 03:58:13;;;;;;;4.63;3.80;;;11.70;99.90;;;;;;5016660;28;20183;-56
2021/09/29 04:00:39;;;;;;;7.40;4.43;;;11.70;99.90;;;;;;5020754;28;20271;-56
2021/09/29 04:03:07;;;;;;;7.93;3.33;;;11.70;99.90;;;;;;5026975;28;20680;-57
2021/09/29 04:05:32;;;;;;;4.77;3.33;;;11.70;99.90;;;;;;5018649;28;20638;-58
2021/09/29 04:07:58;;;;;;;5.10;3.73;;;11.70;99.90;;;;;;5025634;28;20542;-56
2021/09/29 04:10:24;;;;;;;5.83;3.97;;;11.70;99.90;;;;;;5013039;28;20233;-57
2021/09/29 04:12:50;;;;;;;4.40;3.67;;;11.70;99.90;;;;;;5013825;28;20206;-60
2021/09/29 04:15:16;;;;;;;4.70;4.03;;;11.70;99.90;;;;;;5019854;28;20175;-58
2021/09/29 04:17:42;;;;;;;12.67;4.67;;;11.80;99.90;;;;;;5022083;28;20470;-57
2021/09/29 04:20:08;;;;;;;5.50;4.80;;;11.80;99.90;;;;;;5019171;28;21115;-58
2021/09/29 04:22:34;;;;;;;10.37;4.43;;;11.80;99.90;;;;;;5017706;28;20214;-61
2021/09/29 04:25:00;;;;;;;6.27;4.37;;;11.80;99.90;;;;;;5017281;28;20442;-61
2021/09/29 04:27:26;;;;;;;5.40;4.33;;;11.80;99.90;;;;;;5019478;28;20462;-60
2021/09/29 04:29:51;;;;;;;9.83;4.77;;;11.80;99.90;;;;;;5020777;28;20558;-60
2021/09/29 04:32:17;;;;;;;6.07;4.40;;;11.80;99.90;;;;;;5016992;28;20188;-60
2021/09/29 04:34:42;;;;;;;9.47;4.73;;;11.80;99.90;;;;;;4999699;28;20188;-59
2021/09/29 04:37:08;;;;;;;16.80;4.37;;;11.80;99.90;;;;;;5016428;28;20184;-61
2021/09/29 04:39:34;;;;;;;7.30;3.70;;;11.80;99.90;;;;;;5012449;28;20176;-60
2021/09/29 04:42:00;;;;;;;5.03;3.70;;;11.80;99.90;;;;;;5006844;28;20752;-60
2021/09/29 04:44:25;;;;;;;6.53;3.10;;;11.80;99.90;;;;;;5024301;28;20514;-57
2021/09/29 04:46:51;;;;;;;3.77;3.23;;;11.80;99.90;;;;;;5019588;28;20223;-56
2021/09/29 04:49:17;;;;;;;4.47;3.63;;;11.80;99.90;;;;;;5022392;28;20176;-58
2021/09/29 04:51:42;;;;;;;7.70;2.97;;;11.80;99.90;;;;;;5023375;28;20183;-62
2021/09/29 04:54:08;;;;;;;8.53;3.30;;;11.80;99.90;;;;;;5003838;28;20177;-61
2021/09/29 04:56:34;;;;;;;3.90;3.60;;;11.80;99.90;;;;;;5024163;28;20172;-61
2021/09/29 04:59:00;;;;;;;12.20;3.23;;;11.80;99.90;;;;;;5023772;28;20281;-61
2021/09/29 05:01:26;;;;;;;9.43;3.00;;;11.80;99.90;;;;;;5022832;28;20438;-61
2021/09/29 05:03:53;;;;;;;3.40;3.10;;;11.80;99.90;;;;;;5021771;28;20286;-61
2021/09/29 05:06:18;;;;;;;4.63;3.10;;;11.80;99.90;;;;;;5005141;28;20596;-61
2021/09/29 05:08:46;;;;;;;5.23;4.00;;;11.80;99.90;;;;;;5022015;28;21010;-60
2021/09/29 05:11:18;;;;;;;7.67;3.83;;;11.80;99.90;;;;;;5022958;28;20175;-61
2021/09/29 05:13:45;;;;;;;6.40;3.73;;;11.80;99.90;;;;;;5026802;28;21042;-60
2021/09/29 05:16:11;;;;;;;4.30;3.50;;;11.70;99.90;;;;;;5026727;28;20436;-61
2021/09/29 05:18:36;;;;;;;4.97;3.47;;;11.70;99.90;;;;;;5009929;28;20497;-61
2021/09/29 05:21:03;;;;;;;4.53;3.63;;;11.70;99.90;;;;;;5012597;28;20430;-61
2021/09/29 05:23:29;;;;;;;3.77;3.20;;;11.70;99.90;;;;;;5027176;28;20217;-61
2021/09/29 05:25:55;;;;;;;5.10;3.20;;;11.70;99.90;;;;;;5028046;28;20529;-61
2021/09/29 05:28:31;;;;;;;5.97;3.33;;;11.60;99.90;;;;;;5004443;28;20222;-61
2021/09/29 05:30:57;;;;;;;3.93;3.17;;;11.60;99.90;;;;;;5025457;28;20437;-61
2021/09/29 05:33:23;;;;;;;3.33;2.60;;;11.60;99.90;;;;;;5023740;28;20541;-60
2021/09/29 05:35:49;;;;;;;6.03;2.93;;;11.60;99.90;;;;;;5030009;28;20506;-61
2021/09/29 05:38:15;;;;;;;4.90;3.40;;;11.60;99.90;;;;;;5009031;28;20530;-61
2021/09/29 05:40:40;;;;;;;4.20;3.57;;;11.60;99.90;;;;;;5024941;28;20555;-62
2021/09/29 05:43:06;;;;;;;7.37;3.50;;;11.60;99.90;;;;;;5027376;28;20223;-61
2021/09/29 05:45:32;;;;;;;6.30;3.07;;;11.60;99.90;;;;;;5025768;28;20274;-61
2021/09/29 05:47:57;;;;;;;4.23;2.83;;;11.60;99.90;;;;;;5021597;28;20195;-61
2021/09/29 05:50:23;;;;;;;8.27;3.20;;;11.60;99.90;;;;;;5012875;28;20187;-61
2021/09/29 05:52:49;;;;;;;6.60;3.40;;;11.60;99.90;;;;;;5025376;28;20203;-61
2021/09/29 05:55:15;;;;;;;4.70;3.17;;;11.60;99.90;;;;;;5027613;28;20659;-59
2021/09/29 05:57:40;;;;;;;4.67;3.03;;;11.60;99.90;;;;;;5028911;28;20172;-61
2021/09/29 06:00:06;;;;;;;4.53;3.10;;;11.60;99.90;;;;;;5026605;28;20188;-60
2021/09/29 06:02:32;;;;;;;3.97;2.90;;;11.60;99.90;;;;;;5027054;28;20199;-61
2021/09/29 06:04:58;;;;;;;5.47;3.10;;;11.60;99.90;;;;;;5026995;28;20441;-60
2021/09/29 06:07:24;;;;;;;2.80;2.50;;;11.60;99.90;;;;;;5027966;28;20637;-62
2021/09/29 06:09:50;;;;;;;4.50;2.97;;;11.60;99.90;;;;;;5022439;28;20191;-61
2021/09/29 06:12:15;;;;;;;4.33;2.73;;;11.60;99.90;;;;;;5027238;28;20256;-61
2021/09/29 06:14:48;;;;;;;3.97;2.43;;;11.50;99.90;;;;;;5029648;28;20210;-61
2021/09/29 06:17:22;;;;;;;4.60;2.63;;;11.50;99.90;;;;;;5016455;28;20302;-61
2021/09/29 06:19:49;;;;;;;3.90;2.80;;;11.50;99.90;;;;;;5030414;28;20442;-61
2021/09/29 06:22:14;;;;;;;3.60;2.77;;;11.50;99.90;;;;;;5021933;28;20490;-62
2021/09/29 06:24:40;;;;;;;3.33;2.50;;;11.60;99.90;;;;;;5028751;28;20446;-61
2021/09/29 06:27:06;;;;;;;2.90;2.33;;;11.60;99.90;;;;;;5034524;28;20556;-60
2021/09/29 06:29:31;;;;;;;4.77;2.80;;;11.60;99.90;;;;;;5028502;28;20206;-61
2021/09/29 06:31:57;;;;;;;4.57;2.70;;;11.70;99.90;;;;;;5030485;28;20195;-61
2021/09/29 06:34:26;;;;;;;3.07;2.60;;;11.80;99.90;;;;;;5029953;28;20572;-61
2021/09/29 06:36:51;;;;;;;4.60;3.30;;;11.80;99.90;;;;;;5026950;28;20176;-61
2021/09/29 06:39:17;;;;;;;3.43;2.40;;;11.90;99.90;;;;;;5029494;28;20798;-61
2021/09/29 06:41:45;;;;;;;4.93;3.00;;;12.00;99.90;;;;;;5032145;28;20567;-61
2021/09/29 06:44:11;;;;;;;3.93;2.57;;;12.10;99.90;;;;;;5029570;28;20434;-61
2021/09/29 06:46:37;;;;;;;4.40;2.90;;;12.10;99.90;;;;;;5028313;28;20476;-60
2021/09/29 06:49:03;;;;;;;5.23;2.80;;;12.10;99.90;;;;;;5018202;28;20430;-60
2021/09/29 06:51:29;;;;;;;11.73;3.13;;;12.00;99.90;;;;;;5030901;28;20588;-60
2021/09/29 06:53:54;;;;;;;12.03;3.40;;;12.10;99.90;;;;;;5030939;28;20196;-60
2021/09/29 06:56:20;;;;;;;10.70;3.23;;;12.10;99.90;;;;;;5029500;28;20179;-61
2021/09/29 06:58:46;;;;;;;56.93;4.80;;;12.10;99.90;;;;;;5027041;28;20184;-62
2021/09/29 07:01:12;;;;;;;51.17;4.93;;;12.10;99.90;;;;;;5033074;28;20176;-61
2021/09/29 07:03:38;;;;;;;49.83;4.90;;;12.10;99.90;;;;;;5029884;28;20442;-61
2021/09/29 07:06:04;;;;;;;6.90;3.27;;;12.10;99.90;;;;;;5027759;28;20438;-61
2021/09/29 07:08:30;;;;;;;19.17;3.40;;;12.10;99.90;;;;;;5020812;28;20180;-61
2021/09/29 07:10:56;;;;;;;18.83;3.27;;;12.20;99.90;;;;;;5027920;28;21027;-61
2021/09/29 07:13:21;;;;;;;8.20;2.87;;;12.20;99.90;;;;;;5022907;28;20184;-61
2021/09/29 07:15:48;;;;;;;24.37;3.90;;;12.30;99.90;;;;;;5028229;28;20172;-61
2021/09/29 07:18:16;;;;;;;11.03;2.90;;;12.30;99.90;;;;;;5026258;28;20328;-60
2021/09/29 07:20:42;;;;;;;27.07;3.63;;;12.40;99.90;;;;;;5030171;28;20434;-61
2021/09/29 07:23:08;;;;;;;16.10;3.77;;;12.50;99.90;;;;;;5031888;28;20446;-61
2021/09/29 07:25:35;;;;;;;8.13;2.90;;;12.60;99.90;;;;;;5028612;28;20449;-61
2021/09/29 07:28:01;;;;;;;5.33;2.43;;;12.60;99.90;;;;;;5029615;28;20463;-61
2021/09/29 07:30:27;;;;;;;3.70;2.30;;;12.70;99.90;;;;;;5024945;28;20438;-60
2021/09/29 07:32:55;;;;;;;6.90;2.80;;;12.80;99.90;;;;;;5027879;28;20198;-61
2021/09/29 07:35:21;;;;;;;3.70;2.40;;;12.80;99.90;;;;;;5021137;28;20422;-61
2021/09/29 07:37:46;;;;;;;5.50;2.77;;;12.90;99.90;;;;;;5023326;28;20477;-60
2021/09/29 07:40:13;;;;;;;6.73;2.70;;;13.00;99.90;;;;;;5007745;28;20180;-61
2021/09/29 07:42:39;;;;;;;10.33;2.50;;;13.00;99.90;;;;;;5020245;28;20203;-61
2021/09/29 07:45:06;;;;;;;4.10;2.23;;;13.10;99.90;;;;;;5028356;28;20435;-61
2021/09/29 07:47:32;;;;;;;5.33;2.40;;;13.20;99.90;;;;;;5006167;28;20487;-61
2021/09/29 07:49:58;;;;;;;7.13;2.50;;;13.20;99.90;;;;;;5027525;28;20465;-60
2021/09/29 07:52:23;;;;;;;19.83;3.30;;;13.30;99.90;;;;;;5030553;28;20192;-60
2021/09/29 07:54:50;;;;;;;9.80;3.70;;;13.30;99.90;;;;;;5020189;28;20194;-60
2021/09/29 07:57:15;;;;;;;5.07;2.70;;;13.40;99.90;;;;;;5025196;28;20179;-61
2021/09/29 07:59:41;;;;;;;4.23;2.97;;;13.50;99.90;;;;;;5020617;28;20966;-61
2021/09/29 08:02:07;;;;;;;8.57;3.23;;;13.60;99.90;;;;;;5019745;28;20200;-61
2021/09/29 08:04:33;;;;;;;2.60;2.43;;;13.70;99.90;;;;;;5030334;28;20183;-61
2021/09/29 08:06:59;;;;;;;5.90;2.67;;;13.70;99.90;;;;;;5025502;28;20354;-61
2021/09/29 08:09:27;;;;;;;6.23;2.30;;;13.80;99.90;;;;;;5027779;28;20426;-61
2021/09/29 08:11:53;;;;;;;5.27;2.63;;;13.90;99.90;;;;;;5021167;28;20469;-60
2021/09/29 08:14:18;;;;;;;3.00;2.40;;;14.00;99.90;;;;;;5024323;28;20426;-60
2021/09/29 08:16:47;;;;;;;6.20;2.40;;;14.10;99.90;;;;;;5029498;28;20180;-60
2021/09/29 08:19:14;;;;;;;15.03;2.70;;;14.20;99.00;;;;;;5024271;28;20189;-60
2021/09/29 08:21:41;;;;;;;5.90;2.17;;;14.30;99.30;;;;;;5029676;28;20787;-61
2021/09/29 08:24:14;;;;;;;8.83;2.10;;;14.30;98.80;;;;;;5030215;28;20589;-60
2021/09/29 08:32:37;;;;;;;4.83;1.50;;;14.40;96.80;;;;;;5029888;28;20476;-61
2021/09/29 08:40:03;;;;;;;3.87;1.90;;;14.40;94.10;;;;;;5028504;28;20433;-60
2021/09/29 08:45:22;;;;;;;3.63;1.90;;;14.50;93.10;;;;;;5028581;28;20449;-60
2021/09/29 08:47:57;;;;;;;3.07;1.73;;;14.60;93.60;;;;;;5025430;28;20469;-60
2021/09/29 09:18:22;;;;;;;5.87;1.83;;;15.50;75.30;;;;;;5024662;28;20778;-60
2021/09/29 09:21:00;;;;;;;3.50;1.50;;;15.70;73.60;;;;;;5021208;28;20500;-60
2021/09/29 09:23:37;;;;;;;5.33;1.90;;;15.80;73.90;;;;;;5027678;28;20520;-60
2021/09/29 09:26:21;;;;;;;8.30;1.77;;;16.00;69.20;;;;;;5022573;28;20462;-61
2021/09/29 09:28:48;;;;;;;3.73;1.97;;;16.20;69.70;;;;;;5022721;28;20446;-61
2021/09/29 09:31:17;;;;;;;2.33;1.50;;;16.20;66.60;;;;;;5029640;28;20522;-60
2021/09/29 09:33:51;;;;;;;2.83;1.27;;;16.10;65.20;;;;;;5030959;28;20446;-60
2021/09/29 09:36:33;;;;;;;3.90;1.40;;;16.10;65.90;;;;;;5025272;28;20408;-60
2021/09/29 09:39:02;;;;;;;5.53;1.60;;;16.20;65.70;;;;;;5024597;28;20505;-61
2021/09/29 09:41:28;;;;;;;1.70;1.40;;;16.30;66.50;;;;;;5026731;28;20497;-61
2021/09/29 09:43:56;;;;;;;3.20;1.63;;;16.40;66.40;;;;;;5030320;28;20453;-61
2021/09/29 09:46:23;;;;;;;3.70;1.47;;;16.50;66.60;;;;;;5034646;28;20243;-60
2021/09/29 09:49:06;;;;;;;3.10;1.50;;;16.60;64.70;;;;;;5034292;28;20422;-61
2021/09/29 09:51:46;;;;;;;5.63;1.70;;;16.50;63.80;;;;;;5033641;28;20520;-61
2021/09/29 09:54:12;;;;;;;5.20;1.93;;;16.50;64.30;;;;;;5034127;28;20434;-61
2021/09/29 09:56:42;;;;;;;4.67;1.70;;;16.50;64.00;;;;;;5031420;28;20426;-61
2021/09/29 09:59:08;;;;;;;3.13;1.40;;;16.60;62.10;;;;;;5028980;28;20977;-60
2021/09/29 10:01:35;;;;;;;6.67;1.60;;;16.70;61.80;;;;;;5034162;28;20433;-60
2021/09/29 10:04:12;;;;;;;6.60;2.00;;;16.60;60.40;;;;;;5031201;28;20434;-61
2021/09/29 10:06:39;;;;;;;7.27;1.57;;;16.60;59.90;;;;;;5031897;28;20465;-61
2021/09/29 10:09:25;;;;;;;3.87;1.40;;;16.40;59.00;;;;;;5013880;28;20453;-60
2021/09/29 10:23:14;;;;;;;3.30;1.20;;;16.10;63.60;;;;;;5029000;28;20572;-59
2021/09/29 10:26:18;;;;;;;2.00;1.10;;;16.30;61.60;;;;;;5012032;28;20449;-59
2021/09/29 10:28:44;;;;;;;6.50;1.60;;;16.20;59.30;;;;;;5026485;28;20440;-59
2021/09/29 10:31:36;;;;;;;5.30;1.20;;;16.10;58.10;;;;;;5026664;28;20430;-59
2021/09/29 10:34:07;;;;;;;4.20;1.13;;;16.20;58.20;;;;;;5027521;28;20176;-60
2021/09/29 10:36:58;;;;;;;1.90;1.30;;;16.20;57.70;;;;;;5033964;28;20953;-59
2021/09/29 10:48:01;;;;;;;2.53;1.17;;;16.60;58.70;;;;;;5032523;28;20825;-59
2021/09/29 11:10:04;;;;;;;5.10;1.30;;;18.10;52.90;;;;;;5023927;28;20519;-61
2021/09/29 11:29:22;;;;;;;5.43;1.67;;;18.90;54.40;;;;;;5021563;28;20969;-60
2021/09/29 11:31:55;;;;;;;2.33;1.10;;;19.60;54.90;;;;;;5029096;28;20941;-61
2021/09/29 11:34:29;;;;;;;3.90;1.70;;;20.10;51.10;;;;;;5018665;28;20422;-61
2021/09/29 12:12:23;;;;;;;8.73;1.20;;;21.00;48.60;;;;;;5008383;28;20537;-55
2021/09/29 12:14:52;;;;;;;7.33;1.40;;;21.20;48.20;;;;;;5026388;28;20419;-60
2021/09/29 12:17:39;;;;;;;5.67;1.67;;;21.30;47.80;;;;;;5020288;28;20430;-61
2021/09/29 12:20:17;;;;;;;4.60;1.30;;;21.50;47.90;;;;;;5024315;28;20446;-60
2021/09/29 12:22:53;;;;;;;2.67;0.90;;;21.80;48.30;;;;;;5025358;28;20462;-61
2021/09/29 12:25:46;;;;;;;1.40;1.10;;;21.80;46.20;;;;;;5024826;28;20858;-59
2021/09/29 12:30:48;;;;;;;6.50;1.33;;;20.70;47.00;;;;;;5026863;28;20414;-61
2021/09/29 12:33:21;;;;;;;2.37;1.30;;;20.20;48.30;;;;;;5020135;28;20531;-61
2021/09/29 12:35:49;;;;;;;2.90;1.00;;;19.70;49.10;;;;;;5019280;28;20422;-60
2021/09/29 12:38:14;;;;;;;5.80;0.97;;;19.40;49.10;;;;;;4999530;28;20450;-60
2021/09/29 12:40:43;;;;;;;3.23;1.20;;;19.00;50.10;;;;;;5028682;28;20466;-61
2021/09/29 12:43:14;;;;;;;2.73;1.57;;;18.60;51.20;;;;;;5026771;28;20204;-61
2021/09/29 12:45:47;;;;;;;4.30;1.63;;;18.30;51.90;;;;;;5004960;28;20441;-60
2021/09/29 12:48:14;;;;;;;4.87;2.63;;;18.10;51.60;;;;;;5024626;28;20559;-60
2021/09/29 12:50:49;;;;;;;2.90;1.80;;;18.10;51.90;;;;;;5008901;28;20435;-61
2021/09/29 12:53:34;;;;;;;5.40;1.30;;;18.00;52.40;;;;;;5028632;28;20434;-60
2021/09/29 12:56:04;;;;;;;1.83;1.00;;;17.90;52.30;;;;;;5028085;28;20414;-60
2021/09/29 12:58:30;;;;;;;3.77;1.37;;;17.70;52.60;;;;;;5025767;28;20947;-61
2021/09/29 13:00:57;;;;;;;5.10;1.47;;;17.70;53.00;;;;;;5027410;28;20433;-60
2021/09/29 13:03:23;;;;;;;1.37;0.97;;;17.60;53.30;;;;;;5028264;28;20439;-60
2021/09/29 13:05:49;;;;;;;1.90;1.50;;;17.50;54.00;;;;;;5008893;28;20425;-61
2021/09/29 13:08:15;;;;;;;5.70;1.37;;;17.50;54.20;;;;;;5026585;28;20198;-60
2021/09/29 13:10:42;;;;;;;2.77;1.60;;;17.40;53.90;;;;;;5032754;28;20179;-60
2021/09/29 13:13:10;;;;;;;4.47;1.30;;;17.40;54.50;;;;;;5028393;28;20434;-60
2021/09/29 13:15:40;;;;;;;2.70;1.30;;;17.40;54.70;;;;;;5027144;28;20449;-60
2021/09/29 13:18:07;;;;;;;5.03;1.30;;;17.40;54.90;;;;;;5021638;28;20985;-60
2021/09/29 13:20:33;;;;;;;6.23;1.20;;;17.50;54.90;;;;;;5018868;28;20445;-61
2021/09/29 13:26:27;;;;;;;4.77;1.40;;;17.60;55.50;;;;;;5022783;22;20228;-58
2021/09/29 13:36:37;;;;;;;3.60;1.50;;;18.50;54.50;;;;;;5002988;28;20955;-57
2021/09/29 13:39:15;;;;;;;3.23;1.23;;;18.70;53.60;;;;;;4999443;28;20435;-55
2021/09/29 13:41:43;;;;;;;1.20;0.93;;;18.70;53.40;;;;;;4999391;28;20801;-56
2021/09/29 13:44:10;;;;;;;5.87;1.40;;;18.60;53.20;;;;;;5003611;28;20482;-57
2021/09/29 13:46:36;;;;;;;1.83;1.30;;;18.40;53.00;;;;;;5006614;28;20633;-56
2021/09/29 13:49:05;;;;;;;2.60;1.10;;;18.20;53.80;;;;;;5005658;28;20412;-58
2021/09/29 13:51:32;;;;;;;3.57;1.30;;;18.00;53.80;;;;;;4997098;28;20527;-56
2021/09/29 13:54:03;;;;;;;3.33;1.10;;;17.80;54.50;;;;;;4979734;28;20451;-57
2021/09/29 13:56:38;;;;;;;1.10;1.00;;;17.70;55.30;;;;;;5005616;28;20408;-55
2021/09/29 14:28:45;;;;;;;2.90;1.03;;;17.10;58.70;;;;;;5000236;28;21843;-58
2021/09/29 14:31:16;;;;;;;4.30;1.50;;;17.00;59.00;;;;;;5001756;28;20439;-60
2021/09/29 14:33:48;;;;;;;1.80;1.20;;;16.90;59.10;;;;;;4999966;28;20442;-59
2021/09/29 14:36:16;;;;;;;4.37;1.50;;;16.80;59.80;;;;;;5002462;28;20431;-61
2021/09/29 14:38:46;;;;;;;1.93;1.10;;;16.70;60.90;;;;;;5004634;28;20447;-60
2021/09/29 14:41:12;;;;;;;4.57;1.40;;;16.60;61.70;;;;;;4999329;28;20439;-59
2021/09/29 14:43:38;;;;;;;2.67;1.20;;;16.50;62.50;;;;;;5008232;28;20537;-59
2021/09/29 14:46:04;;;;;;;3.50;1.23;;;16.30;63.60;;;;;;5005916;28;20633;-61
2021/09/29 14:48:29;;;;;;;1.80;1.23;;;16.30;65.10;;;;;;5004333;28;20216;-59
2021/09/29 14:50:55;;;;;;;3.10;1.60;;;16.20;69.80;;;;;;5010549;28;20199;-58
2021/09/29 14:53:22;;;;;;;2.40;1.20;;;16.20;70.30;;;;;;5006431;28;20192;-60
2021/09/29 14:55:47;;;;;;;4.87;1.30;;;16.20;70.80;;;;;;5009275;28;20489;-58
2021/09/29 14:58:13;;;;;;;7.90;1.50;;;16.10;71.30;;;;;;5005541;28;20318;-58
2021/09/29 15:00:39;;;;;;;3.10;1.30;;;16.10;71.80;;;;;;5006276;28;20361;-59
2021/09/29 15:03:04;;;;;;;2.20;1.30;;;16.00;72.90;;;;;;5008110;28;21023;-58
2021/09/29 15:05:30;;;;;;;3.80;1.53;;;16.00;72.50;;;;;;5005770;28;20679;-58
2021/09/29 15:07:56;;;;;;;0.90;0.90;;;15.90;71.60;;;;;;4984322;28;20302;-58
2021/09/29 15:10:22;;;;;;;3.00;1.00;;;15.90;72.50;;;;;;5003762;28;20524;-57
2021/09/29 15:12:48;;;;;;;2.17;1.40;;;15.80;71.70;;;;;;5000564;28;20558;-54
2021/09/29 15:15:34;;;;;;;4.70;1.33;;;15.70;72.60;;;;;;5004195;28;20189;-59
2021/09/29 15:18:09;;;;;;;3.47;1.20;;;15.70;73.80;;;;;;5006400;28;20184;-60
2021/09/29 15:29:25;;;;;;;3.23;1.00;;;15.20;75.10;;;;;;4993570;28;20431;-57
2021/09/29 15:48:41;;;;;;;1.00;0.90;;;14.70;78.00;;;;;;5004797;28;20503;-57
2021/09/29 15:56:22;;;;;;;3.50;1.03;;;14.50;87.00;;;;;;5006045;28;20412;-58
2021/09/29 15:59:50;;;;;;;1.00;1.00;;;14.40;89.00;;;;;;4997885;28;20185;-57
2021/09/29 16:01:43;;;;;;;1.23;1.13;;;14.30;88.40;;;;;;4992800;28;21065;-56
2021/09/29 16:04:34;;;;;;;1.93;0.80;;;14.10;90.10;;;;;;5002813;28;20513;-55
2021/09/29 16:07:16;;;;;;;4.70;0.90;;;14.00;89.50;;;;;;4987542;28;21442;-56
2021/09/29 16:31:47;;;;;;;3.67;1.30;;;13.00;78.40;;;;;;5002382;28;20505;-56
2021/09/29 16:34:19;;;;;;;3.03;1.33;;;13.00;80.10;;;;;;5003385;28;20451;-59
2021/09/29 16:37:11;;;;;;;1.67;1.30;;;13.00;79.70;;;;;;5004211;28;20449;-57
2021/09/29 16:39:43;;;;;;;4.27;1.97;;;13.00;80.20;;;;;;5000789;28;20431;-56